Racecast

Gunner Talley

Temperance Bedford (MI) · 8 · SECMI D1MONROE · Compare head to head

Athlete rating 98.2 2026 TF season
Best race 107.5 XC
Races 44
Seasons 4 2023 — 2026

RankedNation #55428·MI #4098·Team #28 ?

Rating scale ?
Speed rating — all races

Cross Country

XC speed rating

2025 XC 102.2

Temperance Bedford (MI) · Grade 8

Date Meet Event Result Place Rating Difficulty PR/SR Flags
2025-10-31 Willow Metropark OFFICIAL 3218m 13:53.24 93rd · 4th on team 107.2 -0.002 ★CR CSR
2025-10-18 Airport HS 3218m 15:06.4 63rd · 9th on team 98.1 -0.014 ★CR CSR
2025-10-15 Saline High School 3218m 13:44 53rd · 4th on team 104.3 -0.021 ★PR ★CR SR CSR
2025-10-11 Munson Park 3200m 13:56.3 74th · 6th on team 105.9 +0.000 ★PR ★CR SR CSR
2025-10-04 Monroe Township Stoneco Park 3218m 14:41.91 42nd · 5th on team 99.1 -0.030 ★CR CSR
2025-10-01 Heritage Park (Adrian) OFFICIAL 3218m 14:06.3 65th · 8th on team 107.5 +0.014 PR ★CR ★R SR CSR RSR
2025-09-27 Lake Erie Metro Park OFFICIAL 3200m 14:52.3 99th · 4th on team 100.8 -0.000 PR ★CR R SR CSR RSR
2025-09-19 Ella Sharp Park OFFICIAL 3218m 15:02.9 101st · 6th on team 99.1 +0.004 PR ★CR R SR CSR RSR
2025-09-17 Ella Sharp Park OFFICIAL 3218m 15:15.5 59th · 7th on team 97.9 +0.004 PR CR R SR CSR RSR

2024 XC 91.1

Temperance Bedford (MI) · Grade 7

Date Meet Event Result Place Rating Difficulty PR/SR Flags
2024-10-23 Milan HS OFFICIAL 3218m 15:18.48 53rd · 3rd on team 97.6 -0.004 PR ★CR R SR CSR RSR
2024-10-19 Airport HS 3218m 15:33.9 71st · 11th on team 94.7 -0.014 CR CSR
2024-10-16 Munson Park 3218m 15:31.7 66th · 4th on team 95.9 +0.000 PR ★CR R SR CSR RSR
2024-10-12 Munson Park 3200m 16:17.1 117th · 16th on team 91.1 +0.000 CR CSR
2024-10-05 Monroe Township Stoneco Park 3218m 17:31.79 76th · 17th on team 82.4 -0.030 CR CSR
2024-10-02 Lincoln Middle School 3218m 17:06.97 75th · 4th on team 87.7 +0.005 ★CR SR CSR
2024-09-28 Lake Erie Metro Park OFFICIAL 3200m 16:09.5 138th · 13th on team 91.9 -0.000 PR CR R SR CSR RSR
2024-09-19 Manly W. Bennett Park 3218m 17:55.74 64th · 3rd on team 87.4 +0.058 ★CR SR CSR RSR

2023 XC 79.3

Temperance Bedford (MI) · Grade 6

Date Meet Event Result Place Rating Difficulty PR/SR Flags
2023-10-25 Milan HS OFFICIAL 3218m 18:33.7 85th · 7th on team 81.0 -0.004 CR CSR
2023-10-18 Indian Creek OFFICIAL 3218m 16:26.9 71st · 5th on team 90.6 -0.001 PR ★CR R SR CSR RSR
2023-10-14 Munson Park 3200m 18:45.4 133rd · 14th on team 80.3 +0.000 PR CR R SR CSR RSR
2023-10-07 Monroe Township Stoneco Park 3218m 18:59 84th · 15th on team 76.8 -0.030 PR CR SR CSR
2023-10-04 Ella Sharp Park OFFICIAL 3218m 19:31.9 89th · 5th on team 77.4 +0.004 PR CR R SR CSR RSR
2023-09-30 Lake Erie Metro Park OFFICIAL 3218m 20:28.8 217th · 16th on team 73.3 -0.000 ★CR CSR
2023-09-22 Ella Sharp Park OFFICIAL 3218m 21:35.4 282nd · 16th on team +0.004 CR CSR
2023-09-20 Heritage Park (Adrian) OFFICIAL 3218m 19:49.7 89th · 6th on team 76.0 +0.014 PR CR R SR CSR RSR

Track & Field

TF speed rating

2026 TF 97.0

Temperance Bedford (MI) · Grade 8

Date Meet Event Result Place Rating Difficulty PR/SR Flags
2026-05-11 SEC MS - Bedford @ Lincoln 3200m 14:43.4 4th · 1st on team 98.2 -0.021 ★PR SR
2026-05-07 SEC-MS: Bedford @ Monroe 3200m 14:54.55 2nd · 1st on team 96.9 -0.022 PR SR
2026-04-27 SEC-MS: Stockwell & Bedford @ Pinckney Pathfinder 1600m 6:59.94 5th · 1st on team 96.1 -0.020 ★PR SR RSR
2026-04-27 SEC-MS: Stockwell & Bedford @ Pinckney Pathfinder 800m 3:07.02 7th · 2nd on team 98.2 -0.020 ★PR SR RSR
2026-04-23 SEC MS - Bedford vs Adrian 3200m 15:02.74 3rd · 2nd on team 95.7 -0.026 PR SR RSR

2025 TF 95.1

Temperance Bedford (MI) · Grade 7

Date Meet Event Result Place Rating Difficulty PR/SR Flags
2025-05-09 SEC-MS Bedford@Monroe Dual Meet 2025 lj 9-11.5 -0.022
2025-05-09 SEC-MS Bedford@Monroe Dual Meet 2025 400m 1:18.22 13th · 7th on team -0.022
2025-05-05 SEC-MS: Lincoln @ Bedford lj 9' 3.5" -0.026
2025-05-05 SEC-MS: Lincoln @ Bedford 400m 1:16.65 22nd · 5th on team -0.026 ★PR SR
2025-05-01 SEC-MS: Bedford @ Saline lj ND -0.030
2025-05-01 SEC-MS: Bedford @ Saline 800m 3:11.42 9th · 4th on team 95.1 -0.030 PR SR RSR
2025-04-28 SEC-MS: Bedford at Adrian lj 7' 7.5" -0.018
2025-04-28 SEC-MS: Bedford at Adrian 1600m 7:04.77 5th · 2nd on team 95.0 -0.018 PR SR RSR
2025-04-24 SEC-MS Pinckney @ Bedford lj 7' 11" -0.026
2025-04-24 SEC-MS Pinckney @ Bedford 400m 1:19.75 9th · 6th on team -0.026 PR SR

2024 TF 80.9

Temperance Bedford (MI) · Grade 6

Date Meet Event Result Place Rating Difficulty PR/SR Flags
2024-05-10 SEC-MS: Monroe at Bedford 800m 3:45.42 14th · 7th on team 81.2 -0.026 PR SR RSR
2024-05-10 SEC-MS: Monroe at Bedford 400m 1:34.62 8th · 4th on team -0.026
2024-04-25 SEC MS: Saline @ Bedford 400m 1:33.53 8th · 2nd on team -0.026 PR SR
2024-04-25 SEC MS: Saline @ Bedford 800m 3:46.28 18th · 8th on team 80.6 -0.026 PR SR RSR